Time;durP1;ratioP1;P1;durP2;ratioP2;P2;SDS_P1;SDS_P2;PMS_P1;PMS_P2;Temp;Humidity;BMP_temperature;BMP_pressure;BME280_temperature;BME280_humidity;BME280_pressure;Samples;Min_cycle;Max_cycle;Signal;HPM_P1;HPM_P2
2023/06/04 00:01:02;;;;;;;3.20;2.90;;;;;;;17.87;62.24;95124.09;5084636;28;20024;-73
2023/06/04 00:03:27;;;;;;;4.85;3.25;;;;;;;17.93;62.29;95125.72;5085323;28;20051;-73
2023/06/04 00:05:52;;;;;;;5.65;2.88;;;;;;;17.98;62.26;95135.41;5085105;28;20529;-73
2023/06/04 00:08:18;;;;;;;4.38;3.00;;;;;;;17.88;62.50;95128.41;5084732;28;20020;-73
2023/06/04 00:10:43;;;;;;;3.58;2.70;;;;;;;17.90;62.05;95123.91;5084295;28;20028;-72
2023/06/04 00:13:09;;;;;;;3.80;3.00;;;;;;;17.91;62.15;95122.66;5086961;28;20475;-72
2023/06/04 00:15:34;;;;;;;3.92;3.03;;;;;;;17.92;62.35;95124.19;5089415;28;20039;-73
2023/06/04 00:18:00;;;;;;;3.53;2.83;;;;;;;17.96;62.77;95121.22;5084653;28;20027;-74
2023/06/04 00:20:25;;;;;;;3.85;2.65;;;;;;;17.80;62.37;95122.47;5085023;28;20028;-73
2023/06/04 00:22:51;;;;;;;3.45;2.65;;;;;;;17.82;62.55;95121.97;5083388;28;20529;-72
2023/06/04 00:25:16;;;;;;;2.85;2.45;;;;;;;17.85;62.15;95123.81;5085400;28;20024;-74
2023/06/04 00:27:41;;;;;;;3.10;2.22;;;;;;;17.85;62.03;95116.25;5083990;28;20456;-73
2023/06/04 00:30:07;;;;;;;2.72;2.25;;;;;;;17.84;62.06;95111.16;5084350;28;20242;-73
2023/06/04 00:32:33;;;;;;;3.40;2.38;;;;;;;17.84;61.90;95111.16;5085567;28;20037;-74
2023/06/04 00:34:58;;;;;;;3.35;2.40;;;;;;;17.84;61.97;95114.72;5085131;28;20474;-73
2023/06/04 00:37:24;;;;;;;4.03;2.60;;;;;;;17.73;62.02;95111.75;5085965;28;20559;-73
2023/06/04 00:39:50;;;;;;;4.25;2.60;;;;;;;17.63;62.20;95113.03;5082885;28;20051;-72
2023/06/04 00:42:16;;;;;;;7.40;2.58;;;;;;;17.53;62.73;95115.13;5083982;28;20059;-73
2023/06/04 00:44:44;;;;;;;3.28;2.55;;;;;;;17.57;62.57;95109.41;5084706;28;20023;-73
2023/06/04 00:47:14;;;;;;;4.50;2.95;;;;;;;17.64;62.88;95111.78;5084573;28;20030;-73
2023/06/04 00:49:39;;;;;;;3.05;2.45;;;;;;;17.66;62.81;95114.84;5083640;28;20024;-73
2023/06/04 00:52:05;;;;;;;4.07;2.80;;;;;;;17.68;63.12;95109.59;5084233;28;20024;-72
2023/06/04 00:54:33;;;;;;;3.92;3.22;;;;;;;17.71;63.03;95108.63;5085482;28;20039;-73
2023/06/04 00:56:59;;;;;;;3.30;2.63;;;;;;;17.73;63.10;95103.41;5083693;28;20020;-73
2023/06/04 00:59:24;;;;;;;3.92;3.33;;;;;;;17.75;63.46;95107.22;5085180;28;20461;-73
2023/06/04 01:01:57;;;;;;;4.05;2.97;;;;;;;17.77;63.63;95107.50;5084157;28;20122;-73
2023/06/04 01:04:32;;;;;;;3.97;2.95;;;;;;;17.80;63.28;95107.81;5083163;28;20498;-73
2023/06/04 01:07:00;;;;;;;4.05;3.05;;;;;;;17.79;63.50;95098.69;5085239;28;20070;-73
2023/06/04 01:09:27;;;;;;;5.90;2.92;;;;;;;17.81;63.33;95107.31;5082223;28;20564;-72
2023/06/04 01:11:53;;;;;;;4.13;2.90;;;;;;;17.83;63.39;95109.59;5083961;28;20071;-72
2023/06/04 01:14:18;;;;;;;3.42;2.55;;;;;;;17.84;63.26;95111.16;5083639;28;20052;-73
2023/06/04 01:16:49;;;;;;;8.23;3.55;;;;;;;17.82;62.82;95108.84;5085354;28;20111;-73
2023/06/04 01:19:47;;;;;;;3.67;2.88;;;;;;;17.84;62.90;95106.38;5086786;28;20087;-73
2023/06/04 01:22:43;;;;;;;4.60;2.97;;;;;;;17.64;62.92;95107.00;5087380;28;20028;-72
2023/06/04 01:25:38;;;;;;;4.20;2.80;;;;;;;17.41;63.78;95103.06;5089169;28;20491;-74
2023/06/04 01:28:05;;;;;;;5.13;2.90;;;;;;;17.17;64.08;95105.91;5084588;28;20541;-73
2023/06/04 01:30:36;;;;;;;3.35;2.60;;;;;;;16.89;64.82;95107.34;5087494;28;20076;-73
2023/06/04 01:33:02;;;;;;;3.80;2.25;;;;;;;16.93;64.91;95113.50;5088371;28;20560;-73
2023/06/04 01:35:31;;;;;;;3.38;2.80;;;;;;;16.97;65.09;95116.84;5087330;28;20020;-72
2023/06/04 01:37:57;;;;;;;4.10;2.53;;;;;;;16.99;64.95;95117.16;5087308;28;20503;-73
2023/06/04 01:40:23;;;;;;;3.50;2.55;;;;;;;16.93;65.06;95119.06;5088561;28;20020;-72
2023/06/04 01:42:48;;;;;;;4.35;2.35;;;;;;;16.85;64.94;95121.41;5087078;28;20112;-72
2023/06/04 01:45:15;;;;;;;3.42;2.10;;;;;;;16.83;65.20;95114.81;5086713;28;20024;-73
2023/06/04 01:47:40;;;;;;;3.50;2.60;;;;;;;16.83;65.48;95121.13;5085743;28;20028;-72
2023/06/04 01:50:09;;;;;;;3.25;2.38;;;;;;;16.86;65.14;95124.94;5086554;28;20085;-73
2023/06/04 01:52:38;;;;;;;2.78;2.20;;;;;;;16.92;65.23;95120.31;5086750;28;20048;-73
2023/06/04 01:55:05;;;;;;;3.80;2.13;;;;;;;16.86;65.46;95131.28;5087062;28;20478;-73
2023/06/04 01:57:30;;;;;;;2.90;2.13;;;;;;;16.66;65.94;95122.75;5086497;28;20054;-73
2023/06/04 01:59:56;;;;;;;3.13;2.42;;;;;;;16.66;65.95;95131.06;5088097;28;20084;-73
2023/06/04 02:02:21;;;;;;;3.55;2.50;;;;;;;16.67;65.96;95130.59;5087129;28;20035;-73
2023/06/04 02:04:47;;;;;;;3.97;2.40;;;;;;;16.61;66.48;95131.72;5087100;28;20434;-73
2023/06/04 02:07:20;;;;;;;2.78;2.20;;;;;;;16.63;66.27;95130.03;5087815;28;20380;-73
2023/06/04 02:09:46;;;;;;;3.33;2.47;;;;;;;16.37;66.97;95131.69;5086552;28;20024;-74
2023/06/04 02:12:11;;;;;;;3.33;2.10;;;;;;;16.20;67.67;95140.41;5087725;28;20039;-74
2023/06/04 02:14:37;;;;;;;2.42;2.03;;;;;;;16.31;67.33;95141.91;5086380;28;20020;-74
2023/06/04 02:17:04;;;;;;;3.28;2.45;;;;;;;16.29;67.49;95136.84;5088307;28;20421;-73
2023/06/04 02:19:33;;;;;;;4.22;2.60;;;;;;;16.22;67.80;95148.25;5085113;28;20035;-73
2023/06/04 02:21:58;;;;;;;3.35;2.50;;;;;;;16.15;68.19;95156.91;5085797;28;20024;-73
2023/06/04 02:24:24;;;;;;;2.58;2.25;;;;;;;16.08;68.67;95146.16;5087559;28;20020;-73
2023/06/04 02:26:49;;;;;;;3.00;2.70;;;;;;;16.14;68.43;95158.91;5086493;28;20027;-73
2023/06/04 02:29:14;;;;;;;4.22;2.47;;;;;;;16.14;68.14;95160.94;5088530;28;20026;-73
2023/06/04 02:31:40;;;;;;;3.33;2.33;;;;;;;16.16;68.26;95161.22;5086110;28;20056;-73
2023/06/04 02:34:05;;;;;;;2.92;2.40;;;;;;;16.12;68.40;95166.19;5089780;28;20066;-73
2023/06/04 02:36:31;;;;;;;3.65;2.70;;;;;;;16.18;68.17;95161.53;5091564;28;20069;-73
2023/06/04 02:38:56;;;;;;;4.20;2.50;;;;;;;16.11;68.46;95168.16;5069485;28;20486;-73
2023/06/04 02:41:22;;;;;;;4.00;2.53;;;;;;;16.21;68.05;95168.91;5086816;28;20031;-73
2023/06/04 02:43:48;;;;;;;3.28;2.50;;;;;;;16.34;67.96;95172.22;5085283;28;20165;-73
2023/06/04 02:46:13;;;;;;;3.10;2.20;;;;;;;16.23;68.18;95171.19;5087656;28;20100;-73
2023/06/04 02:48:39;;;;;;;3.75;2.22;;;;;;;16.33;67.78;95175.47;5067908;28;20024;-73
2023/06/04 02:51:05;;;;;;;4.35;2.83;;;;;;;16.37;67.58;95174.09;5087275;28;20543;-73
2023/06/04 02:53:30;;;;;;;3.13;2.53;;;;;;;16.24;68.29;95176.31;5084490;28;20035;-73
2023/06/04 02:55:56;;;;;;;3.03;2.30;;;;;;;16.32;68.18;95183.03;5086395;28;20039;-73
2023/06/04 02:58:24;;;;;;;3.15;2.60;;;;;;;16.40;67.44;95183.47;5085508;28;20089;-73
2023/06/04 03:00:52;;;;;;;3.45;2.60;;;;;;;16.51;67.29;95182.97;5086711;28;20031;-73
2023/06/04 03:03:17;;;;;;;3.50;2.50;;;;;;;16.62;67.04;95183.97;5086613;28;20569;-73
2023/06/04 03:05:43;;;;;;;4.53;2.55;;;;;;;16.70;66.95;95185.22;5085817;28;20119;-73
2023/06/04 03:08:08;;;;;;;2.60;2.30;;;;;;;16.81;66.34;95179.13;5086716;28;20024;-74
2023/06/04 03:10:34;;;;;;;3.10;2.40;;;;;;;16.77;66.34;95183.31;5085261;28;20487;-73
2023/06/04 03:12:59;;;;;;;6.28;2.95;;;;;;;16.74;66.60;95182.25;5087157;28;20503;-73
2023/06/04 03:15:24;;;;;;;3.72;2.47;;;;;;;16.72;66.50;95185.50;5085625;28;20077;-73
2023/06/04 03:17:51;;;;;;;3.28;2.35;;;;;;;16.78;66.24;95182.09;5086904;28;20028;-74
2023/06/04 03:20:16;;;;;;;3.80;2.47;;;;;;;16.91;65.97;95188.94;5085389;28;20472;-73
2023/06/04 03:22:42;;;;;;;3.53;2.30;;;;;;;16.99;66.04;95178.25;5085614;28;20032;-73
2023/06/04 03:25:09;;;;;;;4.80;2.28;;;;;;;17.06;66.08;95182.69;5085412;28;20478;-73
2023/06/04 03:27:35;;;;;;;5.32;2.85;;;;;;;17.12;65.86;95189.13;5085412;28;20505;-74
2023/06/04 03:30:01;;;;;;;3.05;2.53;;;;;;;17.19;65.56;95189.50;5085344;28;20525;-74
2023/06/04 03:32:26;;;;;;;3.35;2.30;;;;;;;17.26;65.46;95191.16;5083210;28;20035;-73
2023/06/04 03:34:52;;;;;;;4.38;2.55;;;;;;;17.28;65.61;95185.91;5086871;28;20032;-73
2023/06/04 03:37:17;;;;;;;4.38;2.40;;;;;;;17.36;65.28;95197.44;5084835;28;20103;-73
2023/06/04 03:39:43;;;;;;;3.35;2.60;;;;;;;17.40;65.03;95196.00;5085373;28;20336;-72
2023/06/04 03:42:08;;;;;;;4.05;2.60;;;;;;;17.44;64.76;95198.59;5085481;28;20102;-72
2023/06/04 03:44:34;;;;;;;4.97;2.15;;;;;;;17.47;64.93;95198.41;5083879;28;20085;-73
2023/06/04 03:46:59;;;;;;;2.80;2.10;;;;;;;17.52;64.68;95208.09;5086156;28;20024;-73
2023/06/04 03:49:25;;;;;;;3.80;2.40;;;;;;;17.54;64.70;95200.06;5082996;28;20032;-72
2023/06/04 03:51:50;;;;;;;4.30;2.42;;;;;;;17.57;64.36;95213.00;5087668;28;20035;-72
2023/06/04 03:54:16;;;;;;;2.90;2.25;;;;;;;17.59;64.11;95207.72;5084205;28;20949;-72
2023/06/04 03:56:44;;;;;;;3.38;2.50;;;;;;;17.62;64.26;95204.00;5085137;28;20142;-73
2023/06/04 03:59:09;;;;;;;3.83;2.58;;;;;;;17.64;63.98;95207.06;5084944;28;20052;-72
2023/06/04 04:01:34;;;;;;;4.15;2.60;;;;;;;17.69;64.24;95209.19;5085658;28;20121;-73
2023/06/04 04:04:00;;;;;;;3.25;2.70;;;;;;;17.69;63.89;95209.19;5085775;28;20476;-73
2023/06/04 04:06:25;;;;;;;4.57;3.15;;;;;;;17.72;64.18;95219.41;5084662;28;20517;-73
2023/06/04 04:08:51;;;;;;;5.55;2.88;;;;;;;17.76;64.34;95213.63;5085717;28;20450;-73
2023/06/04 04:11:17;;;;;;;4.82;3.20;;;;;;;17.79;64.24;95221.03;5082593;28;20031;-73
2023/06/04 04:13:44;;;;;;;4.25;3.15;;;;;;;17.78;64.22;95214.72;5086444;28;20016;-73
2023/06/04 04:16:10;;;;;;;4.63;3.38;;;;;;;17.80;64.46;95217.00;5083101;28;20114;-73
2023/06/04 04:18:36;;;;;;;4.03;3.35;;;;;;;17.83;64.65;95218.81;5086556;28;20103;-73
2023/06/04 04:21:03;;;;;;;4.13;3.45;;;;;;;17.83;64.67;95227.16;5085147;28;20032;-73
2023/06/04 04:23:29;;;;;;;5.32;3.65;;;;;;;17.86;64.54;95223.44;5084311;28;20028;-73
2023/06/04 04:25:58;;;;;;;5.00;3.42;;;;;;;17.88;64.68;95228.50;5084352;28;20220;-73
2023/06/04 04:28:28;;;;;;;4.82;3.65;;;;;;;17.91;64.75;95228.34;5084113;28;20024;-73
2023/06/04 04:30:54;;;;;;;4.80;4.18;;;;;;;17.91;65.08;95227.56;5084638;28;20425;-73
2023/06/04 04:33:19;;;;;;;5.35;3.85;;;;;;;17.94;65.28;95237.72;5083824;28;20489;-73
2023/06/04 04:35:45;;;;;;;6.47;4.32;;;;;;;17.95;65.05;95228.13;5084561;28;20375;-73
2023/06/04 04:38:11;;;;;;;7.22;4.88;;;;;;;17.96;65.04;95236.00;5084906;28;20024;-73
2023/06/04 04:40:37;;;;;;;8.35;4.68;;;;;;;17.98;65.43;95233.50;5083098;28;20028;-73
2023/06/04 04:43:02;;;;;;;7.57;5.38;;;;;;;18.01;65.48;95231.81;5084130;28;20020;-73
2023/06/04 04:45:28;;;;;;;7.30;5.82;;;;;;;18.03;65.29;95234.88;5082960;28;20474;-73
2023/06/04 04:47:53;;;;;;;8.13;4.90;;;;;;;18.06;65.04;95231.13;5084261;28;20107;-72
2023/06/04 04:50:19;;;;;;;6.00;4.97;;;;;;;18.07;64.89;95229.13;5082605;28;20020;-74
2023/06/04 04:52:44;;;;;;;7.18;5.50;;;;;;;18.07;65.20;95232.66;5089216;28;20032;-73
2023/06/04 04:55:11;;;;;;;6.82;5.55;;;;;;;18.11;64.98;95238.78;5089764;28;20480;-74
2023/06/04 04:57:37;;;;;;;7.15;5.53;;;;;;;18.12;65.20;95234.00;5093362;28;20028;-73
2023/06/04 05:00:08;;;;;;;7.18;5.53;;;;;;;18.13;64.80;95239.09;5089581;28;20050;-74
2023/06/04 05:02:35;;;;;;;7.45;5.15;;;;;;;18.19;64.69;95241.97;5088182;28;20517;-74
2023/06/04 05:05:00;;;;;;;5.28;4.63;;;;;;;18.18;64.39;95232.88;5087825;28;20048;-74
2023/06/04 05:07:26;;;;;;;4.88;4.45;;;;;;;18.25;63.80;95237.28;5086377;28;20039;-74
2023/06/04 05:09:51;;;;;;;6.80;4.30;;;;;;;18.30;63.88;95233.81;5089854;28;20062;-74
2023/06/04 05:12:17;;;;;;;6.55;4.53;;;;;;;18.34;63.56;95241.97;5088459;28;20028;-73
2023/06/04 05:14:42;;;;;;;5.72;5.13;;;;;;;18.30;63.50;95231.81;5072468;28;20121;-74
2023/06/04 05:17:09;;;;;;;7.88;4.45;;;;;;;18.36;63.08;95233.91;5088118;28;20032;-74
2023/06/04 05:19:34;;;;;;;6.63;4.45;;;;;;;18.40;63.08;95237.25;5088020;28;20024;-73
2023/06/04 05:22:03;;;;;;;6.40;4.25;;;;;;;18.41;63.14;95245.16;5089269;28;20035;-73
2023/06/04 05:24:28;;;;;;;5.13;4.40;;;;;;;18.45;62.60;95247.72;5087527;28;20055;-73
2023/06/04 05:26:56;;;;;;;7.20;4.68;;;;;;;18.38;62.53;95237.75;5087695;28;20115;-74
2023/06/04 05:29:22;;;;;;;6.53;4.90;;;;;;;18.45;62.32;95253.28;5087253;28;20487;-73
2023/06/04 05:31:47;;;;;;;4.53;4.03;;;;;;;18.43;61.65;95241.88;5089082;28;20028;-73
2023/06/04 05:34:16;;;;;;;5.60;4.32;;;;;;;18.45;61.87;95242.16;5087727;28;20058;-73
2023/06/04 05:36:41;;;;;;;5.50;4.47;;;;;;;18.46;61.66;95246.47;5087999;28;20026;-74
2023/06/04 05:39:08;;;;;;;7.30;4.38;;;;;;;18.46;61.03;95252.03;5088549;28;20095;-73
2023/06/04 05:41:34;;;;;;;6.97;4.43;;;;;;;18.35;61.53;95249.06;5086743;28;20463;-73
2023/06/04 05:43:59;;;;;;;6.07;4.68;;;;;;;18.47;61.63;95248.78;5088712;28;20028;-73
2023/06/04 05:46:25;;;;;;;4.25;3.63;;;;;;;18.56;61.05;95256.25;5085606;28;20510;-73
2023/06/04 05:48:51;;;;;;;5.93;4.45;;;;;;;18.62;61.07;95257.09;5088611;28;20027;-72
2023/06/04 05:51:16;;;;;;;4.93;4.43;;;;;;;18.69;60.50;95262.31;5085781;28;20181;-73
2023/06/04 05:53:42;;;;;;;6.05;4.03;;;;;;;18.69;59.82;95259.53;5088297;28;20103;-73
2023/06/04 05:56:07;;;;;;;8.95;4.03;;;;;;;18.74;59.18;95275.56;5086412;28;20032;-73
2023/06/04 05:58:34;;;;;;;6.15;3.92;;;;;;;18.65;59.16;95264.50;5087521;28;20075;-72
2023/06/04 06:01:00;;;;;;;5.38;4.25;;;;;;;18.74;59.26;95267.19;5087690;28;20067;-73
2023/06/04 06:03:27;;;;;;;6.60;3.72;;;;;;;18.85;59.25;95274.97;5084745;28;20103;-73
2023/06/04 06:05:54;;;;;;;5.53;4.05;;;;;;;18.92;58.42;95273.78;5086997;28;20052;-72
2023/06/04 06:08:19;;;;;;;9.77;4.10;;;;;;;19.00;58.63;95266.59;5088502;28;20028;-74
2023/06/04 06:10:45;;;;;;;4.60;4.10;;;;;;;19.05;58.01;95269.44;5087417;28;20126;-73
2023/06/04 06:13:10;;;;;;;6.10;4.47;;;;;;;19.12;58.09;95275.88;5085789;28;20093;-73
2023/06/04 06:15:36;;;;;;;6.70;4.35;;;;;;;19.17;57.96;95281.53;5086643;28;20052;-73
2023/06/04 06:18:01;;;;;;;7.07;4.15;;;;;;;19.19;57.44;95279.00;5087909;28;20042;-75
2023/06/04 06:20:29;;;;;;;5.13;4.25;;;;;;;19.24;57.55;95280.34;5086542;28;20374;-73
2023/06/04 06:22:54;;;;;;;5.78;4.43;;;;;;;19.21;56.64;95273.72;5053499;28;20035;-73
2023/06/04 06:25:20;;;;;;;7.30;4.40;;;;;;;19.22;56.99;95274.50;5085048;28;20024;-74
2023/06/04 06:27:45;;;;;;;5.97;4.30;;;;;;;19.21;57.02;95270.94;5087809;28;20024;-73
2023/06/04 06:30:12;;;;;;;6.07;4.85;;;;;;;19.17;57.09;95275.94;5085156;28;20016;-73
2023/06/04 06:32:38;;;;;;;8.25;4.20;;;;;;;19.27;57.32;95282.94;5086353;28;20047;-73
2023/06/04 06:35:04;;;;;;;6.05;4.78;;;;;;;19.31;56.66;95283.47;5087052;28;20281;-73
2023/06/04 06:37:29;;;;;;;6.35;4.65;;;;;;;19.24;56.89;95278.31;5086879;28;20032;-73
2023/06/04 06:39:55;;;;;;;7.43;4.88;;;;;;;19.33;57.04;95289.34;5087198;28;20024;-72
2023/06/04 06:42:20;;;;;;;5.90;4.47;;;;;;;19.43;57.36;95286.41;5085974;28;20024;-74
2023/06/04 06:44:46;;;;;;;6.10;4.43;;;;;;;19.53;56.54;95288.59;5087417;28;20544;-73
2023/06/04 06:47:14;;;;;;;6.32;4.95;;;;;;;19.62;56.33;95296.84;5084252;28;20492;-73
2023/06/04 06:49:43;;;;;;;6.68;4.45;;;;;;;19.62;55.79;95287.72;5088202;28;20043;-74
2023/06/04 06:52:09;;;;;;;6.13;4.38;;;;;;;19.72;55.80;95288.34;5084761;28;20081;-74
2023/06/04 06:54:35;;;;;;;7.45;4.78;;;;;;;19.77;55.75;95285.63;5068619;28;20063;-74
2023/06/04 06:57:00;;;;;;;5.75;4.03;;;;;;;19.88;55.65;95290.56;5086935;28;20406;-74
2023/06/04 06:59:26;;;;;;;7.72;4.43;;;;;;;20.03;55.69;95296.84;5085739;28;20028;-74
2023/06/04 07:01:52;;;;;;;6.00;4.40;;;;;;;20.11;55.15;95291.56;5087589;28;20020;-73
2023/06/04 07:04:17;;;;;;;5.20;4.07;;;;;;;20.16;54.93;95290.88;5086505;28;20020;-73
2023/06/04 07:06:43;;;;;;;5.60;4.18;;;;;;;20.15;54.38;95292.13;5086302;28;20040;-75
2023/06/04 07:09:09;;;;;;;7.18;4.15;;;;;;;20.21;54.36;95295.00;5085441;28;20387;-73
2023/06/04 07:11:34;;;;;;;5.93;4.07;;;;;;;20.08;54.48;95304.50;5085543;28;20032;-73
2023/06/04 07:14:02;;;;;;;8.52;4.53;;;;;;;20.15;54.40;95303.31;5084840;28;20509;-73
2023/06/04 07:16:28;;;;;;;6.03;4.05;;;;;;;20.24;54.17;95313.53;5086343;28;20036;-74
2023/06/04 07:18:53;;;;;;;12.02;4.60;;;;;;;20.32;53.88;95304.25;5093734;28;20020;-75
2023/06/04 07:21:19;;;;;;;5.90;4.82;;;;;;;20.38;54.40;95301.50;5085171;28;20047;-74
2023/06/04 07:23:49;;;;;;;4.72;3.78;;;;;;;20.45;54.05;95306.66;5088154;28;20031;-75
2023/06/04 07:26:16;;;;;;;7.53;5.47;;;;;;;20.57;53.65;95310.34;5085500;28;20109;-75
2023/06/04 07:28:41;;;;;;;5.10;4.40;;;;;;;20.72;53.47;95305.41;5087540;28;20031;-74
2023/06/04 07:31:07;;;;;;;5.85;4.82;;;;;;;20.85;53.49;95316.94;5085871;28;20024;-74
2023/06/04 07:33:32;;;;;;;6.80;4.88;;;;;;;21.00;52.91;95313.25;5085559;28;20024;-73
2023/06/04 07:35:58;;;;;;;4.97;4.47;;;;;;;21.11;53.10;95319.69;5085506;28;20039;-74
2023/06/04 07:38:23;;;;;;;5.60;4.82;;;;;;;21.21;52.72;95317.44;5068114;28;20032;-74
2023/06/04 07:40:48;;;;;;;6.30;5.22;;;;;;;21.37;52.63;95321.66;5087007;28;20024;-74
2023/06/04 07:43:14;;;;;;;5.70;4.78;;;;;;;21.48;51.95;95324.53;5085264;28;20487;-75
2023/06/04 07:45:39;;;;;;;6.25;4.57;;;;;;;21.62;52.21;95332.00;5087244;28;20031;-75
2023/06/04 07:48:05;;;;;;;6.88;5.65;;;;;;;21.42;51.21;95338.47;5083910;28;20022;-73
2023/06/04 07:50:30;;;;;;;8.00;5.72;;;;;;;21.08;51.76;95328.28;5087611;28;20028;-73
2023/06/04 07:52:55;;;;;;;8.80;5.47;;;;;;;21.27;51.89;95332.22;5085454;28;20020;-73
2023/06/04 07:55:22;;;;;;;7.75;4.93;;;;;;;21.41;51.97;95331.34;5086371;28;20096;-73
2023/06/04 07:57:47;;;;;;;6.93;5.20;;;;;;;21.58;51.84;95330.69;5086820;28;20115;-74
2023/06/04 08:00:17;;;;;;;7.57;5.07;;;;;;;21.79;51.52;95332.06;5085580;28;20475;-74
2023/06/04 08:02:43;;;;;;;8.05;5.50;;;;;;;21.98;51.05;95335.22;5087065;28;20024;-74
2023/06/04 08:05:08;;;;;;;7.43;5.10;;;;;;;22.08;50.86;95328.13;5084114;28;20054;-73
2023/06/04 08:07:33;;;;;;;6.57;5.05;;;;;;;22.06;50.26;95339.03;5086873;28;20024;-73
2023/06/04 08:09:59;;;;;;;6.72;4.60;;;;;;;21.70;50.84;95340.66;5083726;28;20031;-73
2023/06/04 08:12:24;;;;;;;5.32;4.35;;;;;;;22.00;51.32;95341.81;5086918;28;20340;-73
2023/06/04 08:14:50;;;;;;;7.35;5.25;;;;;;;22.22;50.95;95335.56;5087155;28;20027;-73
2023/06/04 08:17:15;;;;;;;7.75;4.90;;;;;;;22.40;49.59;95337.16;5085312;28;20063;-73
2023/06/04 08:19:41;;;;;;;10.57;5.72;;;;;;;22.56;48.28;95340.50;5085503;28;20077;-74
2023/06/04 08:22:07;;;;;;;9.18;5.32;;;;;;;22.57;48.74;95347.63;5084866;28;20054;-74
2023/06/04 08:24:32;;;;;;;7.47;5.60;;;;;;;22.50;48.43;95340.50;5086663;28;20031;-74
2023/06/04 08:26:59;;;;;;;7.72;5.82;;;;;;;22.09;49.33;95348.50;5089138;28;20020;-74
2023/06/04 08:29:24;;;;;;;10.77;5.75;;;;;;;22.21;49.53;95348.06;5091806;28;20016;-74
2023/06/04 08:31:50;;;;;;;10.55;6.05;;;;;;;22.23;49.11;95341.94;5091781;28;20157;-73
2023/06/04 08:34:15;;;;;;;10.55;7.50;;;;;;;22.30;49.55;95349.84;5092146;28;20060;-74
2023/06/04 08:36:41;;;;;;;8.48;6.80;;;;;;;22.15;49.01;95347.25;5092803;28;20398;-73
2023/06/04 08:39:06;;;;;;;8.40;6.50;;;;;;;22.35;49.20;95351.91;5090758;28;20078;-73
2023/06/04 08:41:42;;;;;;;9.63;6.82;;;;;;;22.57;49.07;95348.41;5091332;28;20054;-73
2023/06/04 08:44:09;;;;;;;10.65;7.68;;;;;;;22.74;48.63;95340.78;5091357;28;20020;-71
2023/06/04 08:46:39;;;;;;;11.00;8.13;;;;;;;22.98;48.36;95347.97;5091102;28;20482;-76
2023/06/04 08:49:06;;;;;;;12.38;7.50;;;;;;;23.03;47.17;95350.75;5090348;28;20119;-72
2023/06/04 08:51:34;;;;;;;9.77;6.90;;;;;;;23.13;47.16;95354.09;5093311;28;20035;-75
2023/06/04 08:53:59;;;;;;;8.52;7.30;;;;;;;23.17;46.90;95362.22;5093368;28;20035;-73
2023/06/04 08:56:26;;;;;;;8.15;6.28;;;;;;;22.59;47.44;95370.28;5090300;28;20047;-74
2023/06/04 08:58:51;;;;;;;9.13;6.60;;;;;;;22.38;48.77;95364.16;5074980;28;20462;-75
2023/06/04 09:01:17;;;;;;;9.77;7.70;;;;;;;22.16;48.65;95362.78;5090728;28;20117;-74
2023/06/04 09:03:43;;;;;;;11.40;7.72;;;;;;;22.15;49.26;95374.50;5093903;28;20020;-75
2023/06/04 09:06:08;;;;;;;8.50;6.65;;;;;;;22.12;49.80;95375.50;5089975;28;20414;-75
2023/06/04 09:08:36;;;;;;;9.45;7.70;;;;;;;22.13;49.86;95374.97;5073820;28;20035;-73
2023/06/04 09:11:06;;;;;;;11.77;7.90;;;;;;;22.21;49.77;95370.44;5090872;28;20024;-73
2023/06/04 09:13:34;;;;;;;9.02;6.38;;;;;;;21.96;49.97;95377.69;5089912;28;20020;-73
2023/06/04 09:16:04;;;;;;;11.73;7.43;;;;;;;21.89;50.22;95374.59;5076864;28;20044;-73
2023/06/04 09:18:30;;;;;;;9.10;6.88;;;;;;;21.50;51.25;95366.72;5052764;28;20114;-73
2023/06/04 09:21:14;;;;;;;8.88;7.00;;;;;;;21.38;50.54;95368.69;5054715;28;20063;-75
2023/06/04 09:23:43;;;;;;;9.10;7.03;;;;;;;21.29;50.85;95365.31;5071460;28;20027;-73
2023/06/04 09:26:10;;;;;;;9.48;7.35;;;;;;;21.35;50.53;95366.91;5071482;28;20047;-75
2023/06/04 09:28:39;;;;;;;8.52;6.72;;;;;;;21.35;50.53;95368.94;5069680;28;20048;-72
2023/06/04 09:31:08;;;;;;;9.57;6.88;;;;;;;21.46;50.46;95363.41;5068754;28;20032;-73
2023/06/04 09:33:43;;;;;;;9.02;6.50;;;;;;;20.86;51.84;95363.16;5070756;28;20063;-73
2023/06/04 09:36:08;;;;;;;11.32;7.05;;;;;;;21.13;51.25;95361.88;5052219;28;20521;-72
2023/06/04 09:38:34;;;;;;;8.52;6.95;;;;;;;21.48;51.00;95369.28;5070494;28;20024;-71
2023/06/04 09:41:00;;;;;;;9.43;6.85;;;;;;;21.34;50.81;95362.59;5071482;28;20090;-72
2023/06/04 09:43:26;;;;;;;11.07;7.45;;;;;;;21.50;49.42;95360.38;5067304;28;20021;-75
2023/06/04 09:45:52;;;;;;;8.93;7.45;;;;;;;21.61;49.16;95366.03;5073107;28;20052;-76
2023/06/04 09:48:22;;;;;;;9.88;7.80;;;;;;;21.68;49.10;95368.41;5067076;28;20037;-74
2023/06/04 09:50:48;;;;;;;13.32;7.78;;;;;;;21.83;48.61;95357.78;5067404;28;20029;-80
2023/06/04 09:53:22;;;;;;;11.57;7.75;;;;;;;22.10;48.80;95370.41;5066628;28;20150;-75
2023/06/04 09:55:59;;;;;;;11.90;7.32;;;;;;;22.08;46.94;95363.72;5067850;28;20078;-74
2023/06/04 09:58:26;;;;;;;9.50;7.05;;;;;;;21.81;48.15;95357.53;5067148;28;20028;-74
2023/06/04 10:00:53;;;;;;;9.75;7.20;;;;;;;21.92;48.11;95368.00;5068268;28;20491;-74
2023/06/04 10:03:23;;;;;;;8.27;7.10;;;;;;;22.29;48.03;95369.97;5066926;28;20028;-75
2023/06/04 10:05:49;;;;;;;9.77;7.10;;;;;;;22.63;46.96;95359.63;5065528;28;20041;-75
2023/06/04 10:08:17;;;;;;;8.40;7.00;;;;;;;22.43;47.26;95361.34;5068996;28;20540;-75
2023/06/04 10:10:46;;;;;;;11.20;7.50;;;;;;;22.61;46.75;95367.78;5065087;28;20040;-76
2023/06/04 10:13:18;;;;;;;8.85;7.53;;;;;;;22.69;46.40;95357.59;5067120;28;20471;-76
2023/06/04 10:15:43;;;;;;;11.15;7.55;;;;;;;22.73;45.87;95367.28;5066728;28;20025;-76
2023/06/04 10:18:10;;;;;;;10.35;7.93;;;;;;;22.82;46.77;95357.84;5068804;28;20083;-75
2023/06/04 10:20:35;;;;;;;11.43;7.50;;;;;;;23.11;46.28;95356.66;5066035;28;20036;-77
2023/06/04 10:23:04;;;;;;;9.40;7.60;;;;;;;23.29;45.50;95355.38;5070498;28;20044;-78
2023/06/04 10:25:30;;;;;;;8.73;7.05;;;;;;;23.48;44.60;95353.56;5051132;28;20505;-78
2023/06/04 10:27:56;;;;;;;11.23;7.15;;;;;;;23.70;44.47;95349.22;5064842;28;20840;-76
2023/06/04 10:30:21;;;;;;;10.07;7.20;;;;;;;24.14;43.50;95353.13;5066809;28;20024;-74
2023/06/04 10:32:46;;;;;;;9.40;6.97;;;;;;;24.11;43.14;95357.75;5066011;28;20524;-76
2023/06/04 10:35:14;;;;;;;7.07;6.22;;;;;;;23.68;43.79;95349.69;5066582;28;20025;-76
2023/06/04 10:37:39;;;;;;;8.13;5.88;;;;;;;23.43;44.09;95353.56;5065893;28;20054;-76
2023/06/04 10:40:07;;;;;;;15.88;6.72;;;;;;;23.56;44.13;95345.38;5053702;28;20024;-74
2023/06/04 10:42:41;;;;;;;8.38;6.72;;;;;;;23.96;44.79;95351.66;5066947;28;20032;-75
2023/06/04 10:45:15;;;;;;;10.88;6.22;;;;;;;24.00;42.25;95350.13;5048820;28;20070;-77
2023/06/04 10:47:43;;;;;;;10.35;6.15;;;;;;;24.30;42.88;95344.63;5072190;28;20186;-73
2023/06/04 10:50:14;;;;;;;9.30;5.97;;;;;;;24.48;44.51;95346.09;5065584;28;20032;-75
2023/06/04 10:52:57;;;;;;;8.88;6.35;;;;;;;24.69;43.41;95349.31;5049681;28;20483;-75
2023/06/04 10:55:23;;;;;;;7.75;5.93;;;;;;;24.77;43.69;95341.84;5068045;28;20644;-74
2023/06/04 10:57:59;;;;;;;7.55;5.78;;;;;;;24.77;43.29;95346.69;5065179;28;20051;-74
2023/06/04 11:00:38;;;;;;;8.98;5.32;;;;;;;24.72;43.21;95342.66;5067744;28;20036;-75
2023/06/04 11:03:11;;;;;;;7.93;5.78;;;;;;;24.45;41.56;95349.97;5066870;28;20035;-75
2023/06/04 11:05:38;;;;;;;;;;;;;;;24.60;42.59;95344.78;5051545;28;20053;-74
2023/06/04 11:08:06;;;;;;;7.68;5.28;;;;;;;24.05;42.96;95343.72;5067859;28;20464;-74
2023/06/04 11:10:36;;;;;;;10.00;6.55;;;;;;;24.03;42.97;95346.31;5068307;28;20020;-76
2023/06/04 11:13:03;;;;;;;6.97;5.85;;;;;;;23.98;43.18;95338.66;5066414;28;20543;-76
2023/06/04 11:15:39;;;;;;;9.05;6.65;;;;;;;24.01;44.42;95334.03;5048928;28;20060;-75
2023/06/04 11:18:05;;;;;;;7.70;6.00;;;;;;;23.90;43.65;95334.06;5067773;28;20070;-75
2023/06/04 11:20:31;;;;;;;7.05;5.80;;;;;;;23.71;42.87;95345.88;5065765;28;20028;-77
2023/06/04 11:23:03;;;;;;;7.13;6.43;;;;;;;23.74;43.76;95341.25;5065933;28;20563;-78
2023/06/04 11:25:30;;;;;;;9.05;7.03;;;;;;;23.85;43.67;95344.81;5055640;28;20044;-76
2023/06/04 11:27:57;;;;;;;7.78;6.40;;;;;;;23.83;43.15;95341.00;5049390;28;20020;-75
2023/06/04 11:30:24;;;;;;;7.00;6.18;;;;;;;23.88;43.51;95333.84;5065062;28;20017;-76
2023/06/04 11:32:50;;;;;;;7.90;6.13;;;;;;;23.98;44.07;95337.91;5033191;28;20406;-74